الصفحة الرئيسية
METAR-TAF:

METAR-TAF

مطار :

Garrison Municipal Airport

Garrison, داكوتا الشمالية, الولايات المتحدة

دائرة عرض: 47-38-45N, خط طول: 101-26-22W, ارتفاع: 582 متر

مراقبة الطقس الحالي

تاريخ ووقت الإصدار 41 دقيقة قبل الساعة 03:52UTC
ريح 4 عقدة من الجنوب الغربي
درجة الحرارة -7°درجة مئوية
الرطوبة 93%
ضغط 1021 hPa

METAR: KN60 100352Z AUTO 22004KT M07/M08 A3014 RMK AO1 SLP243 T10671078

زمن: 22:33 (04:33 UTC)


TAF: مفقودة

أرصاد الطقس والتوقعات من أكثر من 4000 مطار (تقارير الطقس للمطار METAR والتنبؤ بالطقس بالمطارTAF).

المحطات المتاحة هي النقط الصفراء والحمراء على الخريطة.

حرك المؤشر فوق النقطة لمعرفة اسم المحطة.

ثم انقر لمعرفة أرصاد وتوقعات الطقس.

لتغيير الخارطة: اضغط على الأزرار الخضراء مع رمز الصليب الأسود للتكبير. على الزر الأخضر مع شرطة للتصغير، أو على الأسهم الخضراء للخرائط المجاورة.


METAR-TAF: